الصفحة الرئيسية
METAR-TAF:

METAR-TAF

مطار :

تشيتا, روسيا

دائرة عرض: 52-05N, خط طول: 113-29E, ارتفاع: 685 متر

مراقبة الطقس الحالي

تاريخ ووقت الإصدار 26 دقيقة قبل الساعة 19:30UTC
ريح 2 عقدة من الشمال الغربي
درجة الحرارة 6°درجة مئوية
الرطوبة 100%
ضغط 1005 hPa
الرؤية 10 كم أو أكثر
غيوم متفرقة على ارتفاع 1200 قدم
ملبد بالغيوم على ارتفاع 2600 قدم, مزنة ركامية.

METAR: UIAA 291930Z 31001MPS 9999 SCT012 OVC026CB 06/06 Q1005 R29/290250 NOSIG RMK QBB370 MT OBSC QFE695/0927

زمن: 04:56 (19:56 UTC)

توقعات

تاريخ ووقت الإصدار 2ساعات و 56 دقيقة قبل الساعة 17:00UTC
التوقعات صالحة من29 الساعة 18 UTC إلى 30 الساعة 18 UTC
ريح 6 عقدة من الجنوب الغربي تتزايد حتى 16 عقدة
الرؤية: 3100 متر
غيوم متفرقة على ارتفاع 700 قدم
ملبد بالغيوم على ارتفاع 1400 قدم, مزنة ركامية.
زخات من الأمطار الخفيفة, غشاء
مؤقت
من 29 الساعة 18 UTC إلى 30 الساعة 18 UTC
ريح 10 عقدة من الشمال الغربي تتزايد حتى 19 عقدة

TAF: UIAA 291700Z 2918/3018 22003G08MPS 3100 -SHRA BR SCT007 OVC014CB TEMPO 2918/3018 32005G10MPS

أرصاد الطقس والتوقعات من أكثر من 4000 مطار (تقارير الطقس للمطار METAR والتنبؤ بالطقس بالمطارTAF).

المحطات المتاحة هي النقط الصفراء والحمراء على الخريطة.

حرك المؤشر فوق النقطة لمعرفة اسم المحطة.

ثم انقر لمعرفة أرصاد وتوقعات الطقس.

لتغيير الخارطة: اضغط على الأزرار الخضراء مع رمز الصليب الأسود للتكبير. على الزر الأخضر مع شرطة للتصغير، أو على الأسهم الخضراء للخرائط المجاورة.


METAR-TAF: